createdAt,value
2018-04-02T00:00:51.885Z,0
2018-04-02T00:01:53.532Z,0
2018-04-02T00:02:55.179Z,0
2018-04-02T00:03:56.841Z,0
2018-04-02T00:04:58.480Z,0
2018-04-02T00:06:00.131Z,0
2018-04-02T00:07:01.772Z,0
2018-04-02T00:08:03.419Z,0
2018-04-02T00:09:05.072Z,0
2018-04-02T00:10:06.720Z,0
2018-04-02T00:11:08.371Z,0
2018-04-02T00:12:10.021Z,0
2018-04-02T00:13:11.677Z,0
2018-04-02T00:14:13.328Z,0
2018-04-02T00:15:14.971Z,0
2018-04-02T00:16:16.625Z,0
2018-04-02T00:17:18.285Z,0
2018-04-02T00:18:19.945Z,0
2018-04-02T00:19:21.597Z,0
2018-04-02T00:20:23.246Z,0
2018-04-02T00:21:24.893Z,0
2018-04-02T00:22:26.546Z,0
2018-04-02T00:23:28.195Z,0
2018-04-02T00:24:29.853Z,0
2018-04-02T00:25:31.504Z,0
2018-04-02T00:26:33.153Z,0
2018-04-02T00:27:34.870Z,0
2018-04-02T00:28:36.525Z,0
2018-04-02T00:29:38.169Z,0
2018-04-02T00:30:39.820Z,0
2018-04-02T00:31:41.469Z,0
2018-04-02T00:32:43.126Z,0
2018-04-02T00:33:44.765Z,0
2018-04-02T00:34:46.412Z,0
2018-04-02T00:35:48.060Z,0
2018-04-02T00:36:49.708Z,0
2018-04-02T00:37:51.366Z,0
2018-04-02T00:38:53.021Z,0
2018-04-02T00:39:54.678Z,0
2018-04-02T00:40:56.319Z,0
2018-04-02T00:41:57.967Z,0
2018-04-02T00:42:59.606Z,0
2018-04-02T00:44:01.253Z,0
2018-04-02T00:45:02.907Z,0
2018-04-02T00:46:04.560Z,0
2018-04-02T00:47:06.209Z,0
2018-04-02T00:48:07.856Z,0
2018-04-02T00:49:09.498Z,0
2018-04-02T00:50:11.163Z,0
2018-04-02T00:51:12.814Z,0
2018-04-02T00:52:14.455Z,0
2018-04-02T00:53:16.108Z,0
2018-04-02T00:54:17.758Z,0
2018-04-02T00:55:19.409Z,0
2018-04-02T00:56:21.057Z,0
2018-04-02T00:57:22.705Z,0
2018-04-02T00:58:24.363Z,0
2018-04-02T00:59:26.036Z,0
2018-04-02T01:00:27.664Z,0
2018-04-02T01:01:29.314Z,0
2018-04-02T01:02:30.966Z,0
2018-04-02T01:03:32.622Z,0
2018-04-02T01:04:34.263Z,0
2018-04-02T01:05:35.912Z,0
2018-04-02T01:06:37.665Z,0
2018-04-02T01:07:39.308Z,0
2018-04-02T01:08:40.950Z,0
2018-04-02T01:09:42.603Z,0
2018-04-02T01:10:44.247Z,0
2018-04-02T01:11:45.900Z,0
2018-04-02T01:12:47.536Z,0
2018-04-02T01:13:49.183Z,0
2018-04-02T01:14:50.840Z,0
2018-04-02T01:15:52.498Z,0
2018-04-02T01:16:54.147Z,0
2018-04-02T01:17:55.796Z,0
2018-04-02T01:18:57.458Z,0
2018-04-02T01:19:59.106Z,0
2018-04-02T01:21:00.760Z,0
2018-04-02T01:22:02.438Z,0
2018-04-02T01:23:04.057Z,0
2018-04-02T01:24:05.711Z,0
2018-04-02T01:25:07.358Z,0
2018-04-02T01:26:09.001Z,0
2018-04-02T01:27:10.647Z,0
2018-04-02T01:28:12.321Z,0
2018-04-02T01:29:13.941Z,0
2018-04-02T01:30:15.586Z,0
2018-04-02T01:31:17.236Z,0
2018-04-02T01:32:18.895Z,0
2018-04-02T01:33:20.542Z,0
2018-04-02T01:34:22.177Z,0
2018-04-02T01:35:23.825Z,0
2018-04-02T01:36:25.481Z,0
2018-04-02T01:37:27.131Z,0
2018-04-02T01:38:28.776Z,0
2018-04-02T01:39:30.421Z,0
2018-04-02T01:40:32.072Z,0
2018-04-02T01:41:33.729Z,0
2018-04-02T01:42:35.384Z,0
2018-04-02T01:43:37.034Z,0
2018-04-02T01:44:38.690Z,0
2018-04-02T01:45:40.334Z,0
2018-04-02T01:46:41.977Z,0
2018-04-02T01:47:43.625Z,0
2018-04-02T01:48:45.273Z,0
2018-04-02T01:49:46.933Z,0
2018-04-02T01:50:48.579Z,0
2018-04-02T01:51:50.222Z,0
2018-04-02T01:52:51.870Z,0
2018-04-02T01:53:53.527Z,0
2018-04-02T01:54:55.166Z,0
2018-04-02T01:55:56.817Z,0
2018-04-02T02:02:10.932Z,0
2018-04-02T06:01:42.874Z,195
2018-04-02T06:02:44.526Z,200
2018-04-02T06:03:46.181Z,205
2018-04-02T06:04:47.825Z,205
2018-04-02T06:05:49.482Z,210
2018-04-02T06:06:51.129Z,220
2018-04-02T06:07:52.779Z,225
2018-04-02T06:08:54.461Z,225
2018-04-02T06:09:56.108Z,220
2018-04-02T06:10:57.753Z,220
2018-04-02T06:11:59.426Z,220
2018-04-02T06:13:01.069Z,220
2018-04-02T06:14:02.724Z,235
2018-04-02T06:15:04.378Z,245
2018-04-02T06:16:06.046Z,255
2018-04-02T06:17:07.696Z,270
2018-04-02T06:18:09.347Z,295
2018-04-02T06:19:11.003Z,315
2018-04-02T06:20:12.663Z,345
2018-04-02T06:21:14.321Z,375
2018-04-02T06:22:15.978Z,405
2018-04-02T06:23:17.634Z,430
2018-04-02T06:24:19.289Z,440
2018-04-02T06:25:20.955Z,455
2018-04-02T06:26:22.610Z,455
2018-04-02T06:27:24.272Z,460
2018-04-02T06:28:25.928Z,445
2018-04-02T06:29:27.589Z,415
2018-04-02T06:30:29.248Z,405
2018-04-02T06:31:30.908Z,390
2018-04-02T06:32:32.576Z,370
2018-04-02T06:33:34.223Z,350
2018-04-02T06:34:35.900Z,335
2018-04-02T06:35:37.572Z,320
2018-04-02T06:36:39.227Z,315
2018-04-02T06:37:40.893Z,320
2018-04-02T06:38:42.551Z,310
2018-04-02T06:39:44.240Z,305
2018-04-02T06:40:45.910Z,295
2018-04-02T06:41:47.576Z,295
2018-04-02T06:42:49.248Z,310
2018-04-02T06:43:50.908Z,325
2018-04-02T06:44:52.578Z,335
2018-04-02T06:45:54.229Z,345
2018-04-02T06:46:55.884Z,355
2018-04-02T06:47:57.543Z,395
2018-04-02T06:48:59.210Z,420
2018-04-02T06:50:01.663Z,415
2018-04-02T06:51:03.327Z,405
2018-04-02T06:52:04.993Z,405
2018-04-02T06:53:06.649Z,420
2018-04-02T06:54:08.318Z,450
2018-04-02T06:55:09.976Z,450
2018-04-02T06:56:11.631Z,445
2018-04-02T06:57:13.294Z,450
2018-04-02T06:58:14.954Z,435
2018-04-02T06:59:16.618Z,440
2018-04-02T07:00:18.273Z,460
2018-04-02T07:01:19.937Z,470
2018-04-02T07:02:21.595Z,465
2018-04-02T07:03:23.254Z,470
2018-04-02T07:04:24.949Z,480
2018-04-02T07:05:26.586Z,490
2018-04-02T07:06:28.249Z,475
2018-04-02T07:07:29.905Z,430
2018-04-02T07:08:31.568Z,425
2018-04-02T07:09:33.231Z,435
2018-04-02T07:10:34.889Z,475
2018-04-02T07:11:36.550Z,495
2018-04-02T07:12:38.208Z,495
2018-04-02T07:13:40.014Z,490
2018-04-02T07:14:41.727Z,475
2018-04-02T07:15:43.394Z,460
2018-04-02T07:16:45.044Z,460
2018-04-02T07:17:46.982Z,450
2018-04-02T07:18:48.591Z,455
2018-04-02T07:19:50.334Z,505
2018-04-02T07:20:52.019Z,525
2018-04-02T07:21:53.653Z,540
2018-04-02T07:22:55.305Z,550
2018-04-02T07:23:56.968Z,550
2018-04-02T07:24:58.625Z,530
2018-04-02T07:26:00.281Z,520
2018-04-02T07:27:01.938Z,505
2018-04-02T07:28:03.596Z,520
2018-04-02T07:29:05.257Z,570
2018-04-02T07:30:06.929Z,595
2018-04-02T07:31:08.591Z,575
2018-04-02T07:32:10.247Z,535
2018-04-02T07:33:11.902Z,535
2018-04-02T07:34:13.572Z,555
2018-04-02T07:35:15.239Z,530
2018-04-02T07:36:16.892Z,520
2018-04-02T07:37:18.571Z,505
2018-04-02T07:38:20.212Z,480
2018-04-02T07:39:21.874Z,475
2018-04-02T07:40:23.541Z,455
2018-04-02T07:41:25.191Z,420
2018-04-02T07:42:26.860Z,400
2018-04-02T07:43:28.524Z,390
2018-04-02T07:44:30.187Z,385
2018-04-02T07:45:31.861Z,395
2018-04-02T07:46:33.526Z,420
2018-04-02T07:47:35.189Z,470
2018-04-02T07:48:36.862Z,535
2018-04-02T07:49:38.538Z,725
2018-04-02T07:50:40.237Z,680
2018-04-02T07:51:41.847Z,805
2018-04-02T07:52:43.510Z,765
2018-04-02T07:53:45.271Z,795
2018-04-02T07:54:46.962Z,890
2018-04-02T07:55:48.622Z,935
2018-04-02T07:56:50.277Z,820
2018-04-02T07:57:51.936Z,680
2018-04-02T07:58:53.614Z,665
2018-04-02T07:59:55.276Z,620
2018-04-02T08:00:56.942Z,585
2018-04-02T08:01:58.733Z,590
2018-04-02T08:03:00.411Z,625
2018-04-02T08:04:02.070Z,680
2018-04-02T08:05:03.741Z,660
2018-04-02T08:06:05.409Z,620
2018-04-02T08:07:07.070Z,705
2018-04-02T08:08:08.729Z,820
2018-04-02T08:09:10.388Z,640
2018-04-02T08:10:12.048Z,620
2018-04-02T08:11:13.711Z,575
2018-04-02T08:12:15.376Z,495
2018-04-02T08:13:17.034Z,490
2018-04-02T08:14:18.694Z,645
2018-04-02T08:15:20.356Z,745
2018-04-02T08:16:22.016Z,800
2018-04-02T08:17:23.676Z,965
2018-04-02T08:18:25.338Z,915
2018-04-02T08:19:27.013Z,875
2018-04-02T08:20:28.678Z,925
2018-04-02T08:21:30.335Z,1000
2018-04-02T08:22:32.071Z,1100
2018-04-02T08:23:33.744Z,1075
2018-04-02T08:24:35.410Z,1095
2018-04-02T08:25:37.074Z,1015
2018-04-02T08:26:38.746Z,980
2018-04-02T08:27:40.394Z,940
2018-04-02T08:28:42.053Z,910
2018-04-02T08:29:43.715Z,945
2018-04-02T08:30:45.380Z,875
2018-04-02T08:31:47.049Z,815
2018-04-02T08:32:54.836Z,735
2018-04-02T08:34:02.391Z,645
2018-04-02T08:35:09.936Z,615
2018-04-02T08:36:33.066Z,615
2018-04-02T08:37:40.163Z,625
2018-04-02T08:38:47.145Z,605
2018-04-02T08:39:49.400Z,570
2018-04-02T08:40:56.197Z,605
2018-04-02T08:42:00.725Z,755
2018-04-02T08:43:02.333Z,810
2018-04-02T08:44:03.994Z,815
2018-04-02T08:45:05.696Z,765
2018-04-02T08:46:07.359Z,810
2018-04-02T08:47:09.049Z,905
2018-04-02T08:48:10.717Z,970
2018-04-02T08:49:12.380Z,1130
2018-04-02T08:50:14.043Z,1040
2018-04-02T08:51:15.714Z,760
2018-04-02T08:52:17.387Z,615
2018-04-02T08:53:19.093Z,605
2018-04-02T08:54:20.757Z,785
2018-04-02T08:55:22.423Z,885
2018-04-02T08:56:24.094Z,845
2018-04-02T08:57:25.754Z,760
2018-04-02T08:58:27.432Z,800
2018-04-02T08:59:29.250Z,850
2018-04-02T09:00:30.922Z,960
2018-04-02T09:01:32.588Z,1425
2018-04-02T09:02:34.252Z,1610
2018-04-02T09:03:35.920Z,1115
2018-04-02T09:04:37.588Z,1040
2018-04-02T09:05:39.256Z,1005
2018-04-02T09:06:40.928Z,960
2018-04-02T09:07:42.573Z,1150
2018-04-02T09:08:44.239Z,1060
2018-04-02T09:09:45.913Z,950
2018-04-02T09:10:47.575Z,920
2018-04-02T09:11:49.237Z,945
2018-04-02T09:12:50.898Z,970
2018-04-02T09:13:52.570Z,1335
2018-04-02T09:14:54.252Z,1120
2018-04-02T09:15:55.928Z,1025
2018-04-02T09:16:57.589Z,1140
2018-04-02T09:17:59.271Z,1280
2018-04-02T09:19:01.053Z,1345
2018-04-02T09:20:02.718Z,1390
2018-04-02T09:21:04.379Z,1555
2018-04-02T09:22:06.051Z,1555
2018-04-02T09:23:07.732Z,1940
2018-04-02T09:24:09.403Z,1740
2018-04-02T09:25:11.066Z,1805
2018-04-02T09:26:12.735Z,1395
2018-04-02T09:27:14.410Z,1325
2018-04-02T09:28:16.293Z,1640
2018-04-02T09:29:17.962Z,1535
2018-04-02T09:30:19.636Z,1200
2018-04-02T09:31:21.310Z,1420
2018-04-02T09:32:22.978Z,1560
2018-04-02T09:33:24.673Z,1610
2018-04-02T09:34:26.349Z,1260
2018-04-02T09:35:28.026Z,1185
2018-04-02T09:36:29.699Z,1185
2018-04-02T09:37:31.493Z,1275
2018-04-02T09:38:33.157Z,1155
2018-04-02T09:39:34.820Z,1615
2018-04-02T09:40:36.492Z,1285
2018-04-02T09:41:38.913Z,1280
2018-04-02T09:42:40.614Z,1400
2018-04-02T09:43:42.285Z,1885
2018-04-02T09:44:44.036Z,1970
2018-04-02T09:45:45.710Z,1310
2018-04-02T09:46:47.503Z,1185
2018-04-02T09:47:49.172Z,1230
2018-04-02T09:48:50.841Z,1285
2018-04-02T09:49:52.509Z,1545
2018-04-02T09:50:54.204Z,1670
2018-04-02T09:51:55.887Z,1315
2018-04-02T09:52:57.574Z,1510
2018-04-02T09:53:59.246Z,1500
2018-04-02T09:55:00.934Z,1595
2018-04-02T10:01:27.428Z,1180
2018-04-02T10:02:29.100Z,1240
2018-04-02T10:03:31.302Z,1130
2018-04-02T10:04:33.045Z,1105
2018-04-02T10:05:34.644Z,1175
2018-04-02T10:06:36.300Z,1355
2018-04-02T10:07:37.971Z,1455
2018-04-02T10:08:39.649Z,1520
2018-04-02T10:09:41.306Z,1520
2018-04-02T10:10:42.985Z,1645
2018-04-02T10:11:45.004Z,1620
2018-04-02T10:12:46.662Z,1860
2018-04-02T10:13:48.342Z,1575
2018-04-02T10:14:50.027Z,1830
2018-04-02T10:15:51.696Z,1755
2018-04-02T10:16:53.368Z,1675
2018-04-02T10:17:55.026Z,1940
2018-04-02T10:18:56.707Z,1950
2018-04-02T10:19:58.406Z,1400
2018-04-02T10:21:00.602Z,1120
2018-04-02T10:22:02.301Z,1145
2018-04-02T10:23:04.023Z,1255
2018-04-02T10:24:05.827Z,1230
2018-04-02T10:25:07.435Z,1215
2018-04-02T10:26:09.150Z,1225
2018-04-02T10:27:11.062Z,1195
2018-04-02T10:28:12.736Z,1215
2018-04-02T10:29:14.491Z,1320
2018-04-02T10:30:16.049Z,1470
2018-04-02T10:31:17.715Z,1030
2018-04-02T10:32:19.389Z,1005
2018-04-02T10:33:21.106Z,935
2018-04-02T10:34:22.724Z,955
2018-04-02T10:35:24.396Z,865
2018-04-02T10:36:26.062Z,960
2018-04-02T10:37:27.740Z,1440
2018-04-02T10:38:29.406Z,1180
2018-04-02T10:39:31.066Z,1185
2018-04-02T10:40:32.746Z,1055
2018-04-02T10:41:34.408Z,930
2018-04-02T10:42:36.077Z,960
2018-04-02T10:43:37.745Z,970
2018-04-02T10:44:39.410Z,895
2018-04-02T10:45:41.074Z,835
2018-04-02T10:46:42.738Z,965
2018-04-02T10:47:44.462Z,1215
2018-04-02T10:48:46.130Z,1245
2018-04-02T10:49:47.809Z,1510
2018-04-02T10:50:49.485Z,1755
2018-04-02T10:51:51.175Z,2690
2018-04-02T10:52:52.855Z,1690
2018-04-02T10:53:54.573Z,1560
2018-04-02T10:54:56.144Z,1500
2018-04-02T10:55:57.819Z,2150
2018-04-02T10:56:59.538Z,1715
2018-04-02T10:58:01.227Z,1220
2018-04-02T10:59:02.905Z,1110
2018-04-02T11:00:04.579Z,1120
2018-04-02T11:01:06.242Z,1430
2018-04-02T11:02:07.921Z,1530
2018-04-02T11:03:09.597Z,1565
2018-04-02T11:04:11.281Z,1450
2018-04-02T11:05:12.947Z,1620
2018-04-02T11:06:14.636Z,1875
2018-04-02T11:07:16.295Z,2175
2018-04-02T11:08:17.962Z,2410
2018-04-02T11:09:19.623Z,1700
2018-04-02T11:10:21.299Z,1680
2018-04-02T11:11:22.966Z,1665
2018-04-02T11:12:24.637Z,1480
2018-04-02T11:13:26.305Z,1720
2018-04-02T11:14:27.964Z,1880
2018-04-02T11:15:29.634Z,1920
2018-04-02T11:16:31.317Z,1965
2018-04-02T11:17:32.995Z,1300
2018-04-02T11:18:34.654Z,2305
2018-04-02T11:19:36.345Z,2970
2018-04-02T11:20:38.007Z,2315
2018-04-02T11:21:39.672Z,2995
2018-04-02T11:22:41.345Z,2840
2018-04-02T11:23:43.033Z,2030
2018-04-02T11:24:44.669Z,1205
2018-04-02T11:25:46.404Z,1120
2018-04-02T11:26:48.077Z,855
2018-04-02T11:27:49.750Z,915
2018-04-02T11:28:51.421Z,1860
2018-04-02T11:29:53.081Z,2505
2018-04-02T11:30:54.760Z,1760
2018-04-02T11:31:56.424Z,2610
2018-04-02T11:32:58.100Z,2580
2018-04-02T11:33:59.773Z,2510
2018-04-02T11:35:01.462Z,2120
2018-04-02T11:36:03.122Z,1330
2018-04-02T11:37:04.787Z,1070
2018-04-02T11:38:06.458Z,995
2018-04-02T11:39:08.125Z,985
2018-04-02T11:40:09.788Z,1030
2018-04-02T11:41:11.469Z,1100
2018-04-02T11:42:13.142Z,1510
2018-04-02T11:43:14.817Z,2135
2018-04-02T11:44:16.503Z,2340
2018-04-02T11:45:18.164Z,2640
2018-04-02T11:46:19.818Z,2260
2018-04-02T11:47:21.487Z,2515
2018-04-02T11:48:23.166Z,2605
2018-04-02T11:49:24.848Z,2460
2018-04-02T11:50:26.542Z,1885
2018-04-02T11:51:29.166Z,1230
2018-04-02T11:52:30.851Z,1110
2018-04-02T11:53:32.599Z,1350
2018-04-02T11:54:34.275Z,1060
2018-04-02T11:55:35.936Z,1110
2018-04-02T11:56:37.609Z,1895
2018-04-02T11:57:39.284Z,1295
2018-04-02T11:58:40.944Z,2500
2018-04-02T11:59:42.616Z,2525
2018-04-02T12:00:44.306Z,1725
2018-04-02T12:01:45.957Z,865
2018-04-02T12:02:47.633Z,1065
2018-04-02T12:03:49.303Z,2060
2018-04-02T12:04:50.973Z,2630
2018-04-02T12:05:52.644Z,1825
2018-04-02T12:06:54.318Z,955
2018-04-02T12:07:56.001Z,1055
2018-04-02T12:08:57.666Z,1155
2018-04-02T12:09:59.337Z,1150
2018-04-02T12:11:00.999Z,1180
2018-04-02T12:12:02.670Z,1390
2018-04-02T12:13:04.343Z,1640
2018-04-02T12:14:06.007Z,1430
2018-04-02T12:15:07.707Z,1510
2018-04-02T12:16:09.398Z,1850
2018-04-02T12:17:11.070Z,1670
2018-04-02T12:18:12.831Z,1365
2018-04-02T12:19:14.532Z,1365
2018-04-02T12:20:16.196Z,1035
2018-04-02T12:21:17.884Z,1005
2018-04-02T12:22:19.575Z,1135
2018-04-02T12:23:21.258Z,1100
2018-04-02T12:24:22.925Z,1055
2018-04-02T12:25:24.590Z,990
2018-04-02T12:26:26.267Z,950
2018-04-02T12:27:27.939Z,905
2018-04-02T12:28:29.608Z,900
2018-04-02T12:29:31.296Z,930
2018-04-02T12:30:32.946Z,945
2018-04-02T12:31:34.800Z,985
2018-04-02T12:32:36.479Z,1030
2018-04-02T12:33:38.139Z,1030
2018-04-02T12:34:39.807Z,965
2018-04-02T12:35:41.478Z,905
2018-04-02T12:36:43.154Z,885
2018-04-02T12:37:44.920Z,905
2018-04-02T12:38:46.610Z,925
2018-04-02T12:39:48.351Z,925
2018-04-02T12:40:49.998Z,915
2018-04-02T12:41:51.688Z,935
2018-04-02T12:42:53.368Z,940
2018-04-02T12:43:55.044Z,945
2018-04-02T12:44:56.702Z,955
2018-04-02T12:45:58.377Z,985
2018-04-02T12:47:00.278Z,1030
2018-04-02T12:48:01.967Z,1125
2018-04-02T12:49:03.626Z,1415
2018-04-02T12:50:05.286Z,1405
2018-04-02T12:51:06.961Z,1280
2018-04-02T12:52:08.622Z,1225
2018-04-02T12:53:10.299Z,1160
2018-04-02T12:54:11.970Z,1120
2018-04-02T12:55:13.647Z,1090
2018-04-02T12:56:15.317Z,1230
2018-04-02T12:57:17.058Z,1725
2018-04-02T12:58:18.741Z,1520
2018-04-02T12:59:20.399Z,1395
2018-04-02T13:00:22.075Z,1335
2018-04-02T13:01:23.749Z,1270
2018-04-02T13:02:25.415Z,1105
2018-04-02T13:03:27.082Z,1325
2018-04-02T13:04:28.743Z,1445
2018-04-02T13:05:30.412Z,1825
2018-04-02T13:06:32.083Z,1940
2018-04-02T13:07:33.753Z,1595
2018-04-02T13:08:35.427Z,1490
2018-04-02T13:09:37.091Z,1485
2018-04-02T13:10:38.781Z,1110
2018-04-02T13:11:40.446Z,1035
2018-04-02T13:12:42.107Z,965
2018-04-02T13:13:43.769Z,880
2018-04-02T13:14:45.449Z,880
2018-04-02T13:15:47.127Z,925
2018-04-02T13:16:48.798Z,1090
2018-04-02T13:17:50.484Z,1630
2018-04-02T13:18:52.203Z,1215
2018-04-02T13:19:53.873Z,1140
2018-04-02T13:20:56.070Z,1030
2018-04-02T13:21:57.736Z,855
2018-04-02T13:22:59.412Z,810
2018-04-02T13:24:01.078Z,870
2018-04-02T13:25:02.737Z,935
2018-04-02T13:26:04.408Z,930
2018-04-02T13:27:06.087Z,895
2018-04-02T13:28:07.747Z,855
2018-04-02T13:29:09.414Z,865
2018-04-02T13:30:11.082Z,855
2018-04-02T13:31:12.773Z,835
2018-04-02T13:32:14.429Z,800
2018-04-02T13:33:16.090Z,800
2018-04-02T13:34:17.753Z,810
2018-04-02T13:35:19.425Z,815
2018-04-02T13:36:21.094Z,855
2018-04-02T13:37:22.757Z,920
2018-04-02T13:38:24.420Z,925
2018-04-02T13:39:26.089Z,890
2018-04-02T13:40:27.744Z,835
2018-04-02T13:41:29.437Z,835
2018-04-02T13:42:31.098Z,825
2018-04-02T13:43:32.772Z,735
2018-04-02T13:44:34.445Z,660
2018-04-02T13:45:36.109Z,640
2018-04-02T13:46:37.780Z,660
2018-04-02T13:47:39.447Z,665
2018-04-02T13:48:41.124Z,675
2018-04-02T13:49:42.870Z,695
2018-04-02T13:50:44.528Z,675
2018-04-02T13:51:46.199Z,645
2018-04-02T13:52:47.861Z,640
2018-04-02T13:53:49.519Z,665
2018-04-02T13:54:51.193Z,710
2018-04-02T13:55:52.877Z,760
2018-04-02T14:02:17.911Z,840
2018-04-02T14:03:19.581Z,890
2018-04-02T14:04:21.254Z,890
2018-04-02T14:05:22.906Z,880
2018-04-02T14:06:24.568Z,950
2018-04-02T14:07:26.235Z,1015
2018-04-02T14:08:27.910Z,1070
2018-04-02T14:09:29.578Z,1095
2018-04-02T14:10:31.233Z,1185
2018-04-02T14:11:32.939Z,1110
2018-04-02T14:12:34.645Z,900
2018-04-02T14:13:36.318Z,740
2018-04-02T14:14:38.005Z,715
2018-04-02T14:15:39.671Z,735
2018-04-02T14:16:41.349Z,750
2018-04-02T14:17:43.017Z,725
2018-04-02T14:18:44.672Z,695
2018-04-02T14:19:46.344Z,680
2018-04-02T14:20:47.994Z,680
2018-04-02T14:21:49.658Z,675
2018-04-02T14:22:51.332Z,675
2018-04-02T14:23:52.999Z,685
2018-04-02T14:24:54.668Z,675
2018-04-02T14:25:56.328Z,670
2018-04-02T14:26:58.016Z,680
2018-04-02T14:27:59.673Z,680
2018-04-02T14:29:01.339Z,665
2018-04-02T14:30:03.010Z,650
2018-04-02T14:31:04.705Z,640
2018-04-02T14:32:06.361Z,640
2018-04-02T14:33:08.041Z,650
2018-04-02T14:34:09.711Z,670
2018-04-02T14:35:11.381Z,665
2018-04-02T14:36:13.053Z,640
2018-04-02T14:37:14.755Z,645
2018-04-02T14:38:16.423Z,640
2018-04-02T14:39:18.105Z,620
2018-04-02T14:40:19.763Z,575
2018-04-02T14:41:21.432Z,510
2018-04-02T14:42:23.085Z,490
2018-04-02T14:43:24.763Z,510
2018-04-02T14:44:26.421Z,540
2018-04-02T14:45:28.085Z,585
2018-04-02T14:46:29.766Z,620
2018-04-02T14:47:31.429Z,620
2018-04-02T14:48:33.133Z,610
2018-04-02T14:49:34.813Z,600
2018-04-02T14:50:36.486Z,600
2018-04-02T14:51:38.146Z,605
2018-04-02T14:52:39.808Z,625
2018-04-02T14:53:41.479Z,640
2018-04-02T14:54:43.144Z,645
2018-04-02T14:55:44.816Z,660
2018-04-02T14:56:46.530Z,660
2018-04-02T14:57:48.177Z,660
2018-04-02T14:58:49.864Z,660
2018-04-02T14:59:51.529Z,640
2018-04-02T15:00:53.198Z,610
2018-04-02T15:01:54.888Z,605
2018-04-02T15:02:56.547Z,600
2018-04-02T15:03:58.214Z,595
2018-04-02T15:04:59.883Z,590
2018-04-02T15:06:01.563Z,590
2018-04-02T15:07:03.207Z,590
2018-04-02T15:08:04.878Z,585
2018-04-02T15:09:06.537Z,590
2018-04-02T15:10:08.206Z,600
2018-04-02T15:11:09.862Z,600
2018-04-02T15:12:11.526Z,600
2018-04-02T15:13:13.208Z,600
2018-04-02T15:14:14.874Z,600
2018-04-02T15:15:16.544Z,605
2018-04-02T15:16:18.249Z,600
2018-04-02T15:17:19.833Z,600
2018-04-02T15:18:21.510Z,580
2018-04-02T15:19:23.237Z,565
2018-04-02T15:20:24.906Z,545
2018-04-02T15:21:26.580Z,530
2018-04-02T15:22:28.265Z,525
2018-04-02T15:23:29.925Z,525
2018-04-02T15:24:31.595Z,525
2018-04-02T15:25:33.249Z,520
2018-04-02T15:26:34.922Z,505
2018-04-02T15:27:36.603Z,490
2018-04-02T15:28:38.265Z,455
2018-04-02T15:29:39.947Z,420
2018-04-02T15:30:41.608Z,380
2018-04-02T15:31:43.270Z,355
2018-04-02T15:32:44.958Z,330
2018-04-02T15:33:46.642Z,315
2018-04-02T15:34:48.305Z,310
2018-04-02T15:35:49.961Z,320
2018-04-02T15:36:51.622Z,355
2018-04-02T15:37:53.276Z,385
2018-04-02T15:38:54.944Z,395
2018-04-02T15:39:56.600Z,400
2018-04-02T15:40:58.293Z,410
2018-04-02T15:42:00.019Z,430
2018-04-02T15:43:01.622Z,445
2018-04-02T15:44:03.351Z,460
2018-04-02T15:45:05.001Z,450
2018-04-02T15:46:06.672Z,440
2018-04-02T15:47:08.325Z,400
2018-04-02T15:48:09.995Z,380
2018-04-02T15:49:11.659Z,365
2018-04-02T15:50:13.377Z,365
2018-04-02T15:51:15.035Z,395
2018-04-02T15:52:16.700Z,415
2018-04-02T15:53:18.387Z,435
2018-04-02T15:54:20.058Z,445
2018-04-02T15:55:21.740Z,445
2018-04-02T15:56:23.421Z,425
2018-04-02T15:57:25.101Z,410
2018-04-02T15:58:26.880Z,400
2018-04-02T15:59:28.548Z,375
2018-04-02T16:00:30.211Z,350
2018-04-02T16:01:31.880Z,330
2018-04-02T16:02:33.541Z,330
2018-04-02T16:03:35.216Z,325
2018-04-02T16:04:36.879Z,325
2018-04-02T16:05:38.541Z,330
2018-04-02T16:06:40.235Z,345
2018-04-02T16:07:41.914Z,355
2018-04-02T16:08:43.584Z,345
2018-04-02T16:09:45.245Z,320
2018-04-02T16:10:46.947Z,300
2018-04-02T16:11:48.607Z,280
2018-04-02T16:12:50.265Z,260
2018-04-02T16:13:51.940Z,265
2018-04-02T16:14:53.606Z,280
2018-04-02T16:15:55.268Z,285
2018-04-02T16:16:56.934Z,285
2018-04-02T16:17:58.596Z,270
2018-04-02T16:19:00.265Z,255
2018-04-02T16:20:01.957Z,225
2018-04-02T16:21:03.626Z,195
2018-04-02T16:22:05.342Z,165
2018-04-02T16:23:07.060Z,140
2018-04-02T16:24:08.681Z,125
2018-04-02T16:25:10.342Z,115
2018-04-02T16:26:12.066Z,105
2018-04-02T16:27:13.694Z,100
2018-04-02T16:28:15.359Z,100
2018-04-02T16:29:17.025Z,110
2018-04-02T16:30:18.708Z,120
2018-04-02T16:31:20.368Z,135
2018-04-02T16:32:22.160Z,145
2018-04-02T16:33:23.829Z,160
2018-04-02T16:34:25.533Z,175
2018-04-02T16:35:27.158Z,185
2018-04-02T16:36:28.845Z,185
2018-04-02T16:37:30.525Z,175
2018-04-02T16:38:32.181Z,175
2018-04-02T16:39:33.844Z,170
2018-04-02T16:40:35.501Z,160
2018-04-02T16:41:38.687Z,145
2018-04-02T16:42:39.495Z,135
2018-04-02T16:43:41.158Z,125
2018-04-02T16:44:42.864Z,110
2018-04-02T16:45:44.521Z,95
2018-04-02T16:46:46.198Z,80
2018-04-02T16:47:47.872Z,85
2018-04-02T16:48:49.546Z,95
2018-04-02T16:49:51.239Z,105
2018-04-02T16:50:52.931Z,120
2018-04-02T16:51:54.584Z,120
2018-04-02T16:52:56.264Z,105
2018-04-02T16:53:57.978Z,100
2018-04-02T16:54:59.640Z,85
2018-04-02T16:56:01.292Z,75
2018-04-02T16:57:02.954Z,70
2018-04-02T16:58:04.620Z,65
2018-04-02T16:59:06.331Z,70
2018-04-02T17:00:08.000Z,80
2018-04-02T17:01:09.652Z,90
2018-04-02T17:02:11.407Z,100
2018-04-02T17:03:13.095Z,100
2018-04-02T17:04:14.751Z,95
2018-04-02T17:05:16.417Z,90
2018-04-02T17:06:18.080Z,85
2018-04-02T17:07:19.748Z,80
2018-04-02T17:08:21.412Z,80
2018-04-02T17:09:23.073Z,75
2018-04-02T17:10:24.751Z,70
2018-04-02T17:11:26.421Z,65
2018-04-02T17:12:28.078Z,65
2018-04-02T17:13:29.748Z,60
2018-04-02T17:14:31.411Z,55
2018-04-02T17:15:33.064Z,55
2018-04-02T17:16:34.738Z,50
2018-04-02T17:17:36.413Z,50
2018-04-02T17:18:38.086Z,50
2018-04-02T17:19:39.751Z,50
2018-04-02T17:20:41.401Z,50
2018-04-02T17:21:43.063Z,50
2018-04-02T17:22:44.742Z,45
2018-04-02T17:23:46.402Z,45
2018-04-02T17:24:48.062Z,50
2018-04-02T17:25:49.733Z,55
2018-04-02T17:26:51.392Z,60
2018-04-02T17:27:53.061Z,60
2018-04-02T17:28:54.716Z,55
2018-04-02T17:29:56.384Z,55
2018-04-02T17:30:58.060Z,55
2018-04-02T17:31:59.723Z,55
2018-04-02T17:33:01.383Z,50
2018-04-02T17:34:03.052Z,50
2018-04-02T17:35:04.720Z,45
2018-04-02T17:36:06.382Z,45
2018-04-02T17:37:08.037Z,40
2018-04-02T17:38:09.702Z,35
2018-04-02T17:39:11.358Z,30
2018-04-02T17:40:13.015Z,30
2018-04-02T17:41:14.677Z,25
2018-04-02T17:42:16.351Z,25
2018-04-02T17:43:18.017Z,20
2018-04-02T17:44:19.673Z,20
2018-04-02T17:45:21.336Z,20
2018-04-02T17:46:22.990Z,20
2018-04-02T17:47:24.653Z,20
2018-04-02T17:48:26.304Z,15
2018-04-02T17:49:27.968Z,15
2018-04-02T17:50:29.659Z,10
2018-04-02T17:51:31.310Z,10
2018-04-02T17:52:32.974Z,10
2018-04-02T17:53:34.630Z,5
2018-04-02T17:54:36.292Z,5
2018-04-02T17:55:37.955Z,5
2018-04-02T18:01:39.793Z,0
2018-04-02T18:02:41.443Z,0
2018-04-02T18:04:33.348Z,0
2018-04-02T18:05:35.016Z,0
2018-04-02T18:06:36.676Z,0
2018-04-02T18:07:38.411Z,0
2018-04-02T18:08:39.977Z,0
2018-04-02T18:09:41.803Z,0
2018-04-02T18:10:43.456Z,0
2018-04-02T18:11:45.110Z,0
2018-04-02T18:12:46.763Z,0
2018-04-02T18:13:48.422Z,0
2018-04-02T18:14:50.078Z,0
2018-04-02T18:15:51.736Z,0
2018-04-02T18:16:53.406Z,0
2018-04-02T18:17:55.058Z,0
2018-04-02T18:18:56.721Z,0
2018-04-02T18:19:58.362Z,0
2018-04-02T18:21:00.029Z,0
2018-04-02T18:22:01.732Z,0
2018-04-02T18:23:03.325Z,0
2018-04-02T18:24:04.986Z,0
2018-04-02T18:25:06.636Z,0
2018-04-02T18:26:08.298Z,0
2018-04-02T18:27:09.965Z,0
2018-04-02T18:28:11.616Z,0
2018-04-02T18:29:13.392Z,0
2018-04-02T18:30:15.043Z,0
2018-04-02T18:31:16.715Z,0
2018-04-02T18:32:18.358Z,0
2018-04-02T18:33:20.014Z,0
2018-04-02T18:34:21.689Z,0
2018-04-02T18:35:23.344Z,0
2018-04-02T18:36:25.011Z,0